createdAt,value
2022-12-06T00:00:36.243Z,3.30
2022-12-06T00:04:47.965Z,3.50
2022-12-06T00:08:57.691Z,3.70
2022-12-06T00:13:07.323Z,3.80
2022-12-06T00:17:17.987Z,3.80
2022-12-06T00:21:30.005Z,3.90
2022-12-06T00:25:39.506Z,3.90
2022-12-06T00:29:48.726Z,4.00
2022-12-06T00:33:59.807Z,4.10
2022-12-06T00:38:09.064Z,4.10
2022-12-06T00:42:18.306Z,4.20
2022-12-06T00:46:30.121Z,4.30
2022-12-06T00:50:40.926Z,4.30
2022-12-06T00:54:50.128Z,4.30
2022-12-06T00:58:59.443Z,4.40
2022-12-06T01:03:09.212Z,4.40
2022-12-06T01:07:20.186Z,4.40
2022-12-06T01:11:30.886Z,4.40
2022-12-06T01:15:40.507Z,4.30
2022-12-06T01:19:51.304Z,4.20
2022-12-06T01:24:01.967Z,4.10
2022-12-06T01:28:11.087Z,4.00
2022-12-06T01:32:20.267Z,3.90
2022-12-06T01:36:29.531Z,3.80
2022-12-06T01:40:42.369Z,3.70
2022-12-06T01:44:53.388Z,3.70
2022-12-06T01:49:11.570Z,3.70
2022-12-06T01:53:25.370Z,3.70
2022-12-06T01:57:36.927Z,3.70
2022-12-06T02:01:47.390Z,3.80
2022-12-06T02:05:58.224Z,3.80
2022-12-06T02:10:08.887Z,3.80
2022-12-06T02:14:22.346Z,3.90
2022-12-06T02:18:39.503Z,4.10
2022-12-06T02:23:33.527Z,4.10
2022-12-06T02:28:13.669Z,4.20
2022-12-06T02:32:28.004Z,4.20
2022-12-06T02:36:43.645Z,4.10
2022-12-06T02:40:58.268Z,4.10
2022-12-06T02:45:14.646Z,4.10
2022-12-06T02:49:28.024Z,4.00
2022-12-06T02:53:40.604Z,4.00
2022-12-06T02:57:52.446Z,4.00
2022-12-06T03:02:03.571Z,4.10
2022-12-06T03:06:35.170Z,4.20
2022-12-06T03:10:50.723Z,4.10
2022-12-06T03:15:10.533Z,4.10
2022-12-06T03:19:22.649Z,4.20
2022-12-06T03:23:38.872Z,4.30
2022-12-06T03:27:49.265Z,4.40
2022-12-06T03:32:02.185Z,4.50
2022-12-06T03:36:12.525Z,4.60
2022-12-06T03:40:27.829Z,4.60
2022-12-06T03:44:37.230Z,4.50
2022-12-06T03:48:50.069Z,4.50
2022-12-06T03:52:59.967Z,4.50
2022-12-06T03:57:11.186Z,4.60
2022-12-06T04:01:20.281Z,4.60
2022-12-06T04:05:29.509Z,4.60
2022-12-06T04:10:03.589Z,4.60
2022-12-06T04:14:14.493Z,4.70
2022-12-06T04:18:23.969Z,4.80
2022-12-06T04:22:50.019Z,4.80
2022-12-06T04:27:20.487Z,4.80
2022-12-06T04:31:48.658Z,4.80
2022-12-06T04:36:15.687Z,4.80
2022-12-06T04:40:24.908Z,4.80
2022-12-06T04:44:32.930Z,4.80
2022-12-06T04:48:43.809Z,4.80
2022-12-06T04:52:52.966Z,4.80
2022-12-06T04:57:02.588Z,4.80
2022-12-06T05:01:12.123Z,4.80
2022-12-06T05:05:22.890Z,4.70
2022-12-06T05:09:32.114Z,4.70
2022-12-06T05:13:41.268Z,4.80
2022-12-06T05:17:50.305Z,4.80
2022-12-06T05:22:00.945Z,4.80
2022-12-06T05:26:13.068Z,4.80
2022-12-06T05:30:22.386Z,4.70
2022-12-06T05:34:31.468Z,4.80
2022-12-06T05:38:45.748Z,4.90
2022-12-06T05:42:57.634Z,4.90
2022-12-06T05:47:06.908Z,4.90
2022-12-06T05:51:16.047Z,4.90
2022-12-06T05:55:27.468Z,4.80
2022-12-06T05:59:36.965Z,4.80
2022-12-06T06:03:47.696Z,4.90
2022-12-06T06:07:57.409Z,4.90
2022-12-06T06:12:12.685Z,4.70
2022-12-06T06:16:22.518Z,4.70
2022-12-06T06:20:32.086Z,4.70
2022-12-06T06:24:43.205Z,4.70
2022-12-06T06:28:53.806Z,4.60
2022-12-06T06:33:02.929Z,4.50
2022-12-06T06:37:12.147Z,4.50
2022-12-06T06:41:21.246Z,4.50
2022-12-06T06:45:31.884Z,4.50
2022-12-06T06:49:41.269Z,4.50
2022-12-06T06:53:50.368Z,4.40
2022-12-06T06:57:59.426Z,4.40
2022-12-06T07:02:12.862Z,4.50
2022-12-06T07:06:22.427Z,4.70
2022-12-06T07:10:32.023Z,4.70
2022-12-06T07:14:41.147Z,4.70
2022-12-06T07:18:51.866Z,4.70
2022-12-06T07:23:00.946Z,4.70
2022-12-06T07:27:10.132Z,4.70
2022-12-06T07:31:21.129Z,4.70
2022-12-06T07:36:09.836Z,4.70
2022-12-06T07:40:01.667Z,4.60
2022-12-06T07:44:29.326Z,4.80
2022-12-06T07:48:38.565Z,4.80
2022-12-06T07:52:50.248Z,4.80
2022-12-06T07:56:59.720Z,4.80
2022-12-06T08:01:08.916Z,4.70
2022-12-06T08:05:18.309Z,4.70
2022-12-06T08:09:29.007Z,4.70
2022-12-06T08:13:39.046Z,4.70
2022-12-06T08:17:48.226Z,4.70
2022-12-06T08:21:57.433Z,4.40
2022-12-06T08:26:10.007Z,4.50
2022-12-06T08:30:19.448Z,4.50
2022-12-06T08:34:28.786Z,4.50
2022-12-06T08:38:38.449Z,4.30
2022-12-06T08:42:49.106Z,4.20
2022-12-06T08:46:58.967Z,4.20
2022-12-06T08:51:08.384Z,4.40
2022-12-06T08:55:17.608Z,4.40
2022-12-06T08:59:29.646Z,4.30
2022-12-06T09:03:38.746Z,4.40
2022-12-06T09:07:48.058Z,4.50
2022-12-06T09:11:57.209Z,4.60
2022-12-06T09:16:11.016Z,4.70
2022-12-06T09:20:21.285Z,4.70
2022-12-06T09:24:30.377Z,4.70
2022-12-06T09:28:41.986Z,4.70
2022-12-06T09:32:53.592Z,4.80
2022-12-06T09:37:09.364Z,4.80
2022-12-06T09:41:43.563Z,4.80
2022-12-06T09:46:13.332Z,4.80
2022-12-06T09:50:30.170Z,4.80
2022-12-06T09:55:00.251Z,5.00
2022-12-06T09:59:16.327Z,5.00
2022-12-06T10:04:05.564Z,5.00
2022-12-06T10:08:29.249Z,4.90
2022-12-06T10:12:52.563Z,4.90
2022-12-06T10:17:11.910Z,4.90
2022-12-06T10:21:32.625Z,4.90
2022-12-06T10:25:46.945Z,4.90
2022-12-06T10:30:03.483Z,4.80
2022-12-06T10:34:23.208Z,4.90
2022-12-06T10:38:37.184Z,5.00
2022-12-06T10:42:53.045Z,5.10
2022-12-06T10:47:06.996Z,4.90
2022-12-06T10:51:23.684Z,5.00
2022-12-06T10:55:40.944Z,5.00
2022-12-06T11:00:03.222Z,5.00
2022-12-06T11:04:17.565Z,4.80
2022-12-06T11:08:34.425Z,4.50
2022-12-06T11:12:44.427Z,4.60
2022-12-06T11:16:59.125Z,4.80
2022-12-06T11:21:21.063Z,4.90
2022-12-06T11:25:38.225Z,4.60
2022-12-06T11:29:49.442Z,4.40
2022-12-06T11:34:00.813Z,4.40
2022-12-06T11:38:10.072Z,4.70
2022-12-06T11:42:24.883Z,4.80
2022-12-06T11:46:34.082Z,4.90
2022-12-06T11:50:45.922Z,4.90
2022-12-06T11:54:59.693Z,4.80
2022-12-06T11:59:25.025Z,4.90
2022-12-06T12:03:37.307Z,5.00
2022-12-06T12:07:51.564Z,5.10
2022-12-06T12:12:05.727Z,5.00
2022-12-06T12:16:21.863Z,5.20
2022-12-06T12:20:34.605Z,5.30
2022-12-06T12:25:17.964Z,5.40
2022-12-06T12:29:21.065Z,5.40
2022-12-06T12:33:31.006Z,5.40
2022-12-06T12:37:39.984Z,5.50
2022-12-06T12:41:50.703Z,5.40
2022-12-06T12:46:29.089Z,5.50
2022-12-06T12:50:38.245Z,5.70
2022-12-06T12:55:02.043Z,5.70
2022-12-06T12:59:17.744Z,5.80
2022-12-06T13:08:00.280Z,5.80
2022-12-06T13:12:15.069Z,5.80
2022-12-06T13:16:29.726Z,5.80
2022-12-06T13:20:39.284Z,5.90
2022-12-06T13:24:51.564Z,6.00
2022-12-06T13:29:05.525Z,6.00
2022-12-06T13:33:21.593Z,6.00
2022-12-06T13:37:35.685Z,6.10
2022-12-06T13:42:13.343Z,6.20
2022-12-06T13:46:33.745Z,6.10
2022-12-06T13:50:56.362Z,6.00
2022-12-06T13:55:34.983Z,6.00
2022-12-06T13:59:45.785Z,6.10
2022-12-06T14:03:57.666Z,6.20
2022-12-06T14:08:14.125Z,6.40
2022-12-06T14:12:25.503Z,6.40
2022-12-06T14:16:38.784Z,6.60
2022-12-06T14:20:51.144Z,6.70
2022-12-06T14:25:03.786Z,6.80
2022-12-06T14:29:23.265Z,6.80
2022-12-06T14:33:32.545Z,6.80
2022-12-06T14:37:47.166Z,6.80
2022-12-06T14:42:22.013Z,6.70
2022-12-06T14:46:31.208Z,6.70
2022-12-06T14:50:44.765Z,6.70
2022-12-06T14:54:55.045Z,6.70
2022-12-06T14:59:13.085Z,6.80
2022-12-06T15:03:31.930Z,6.70
2022-12-06T15:07:43.525Z,6.60
2022-12-06T15:12:10.083Z,6.60
2022-12-06T15:16:20.962Z,6.50
2022-12-06T15:20:30.105Z,6.60
2022-12-06T15:24:39.129Z,6.60
2022-12-06T15:28:49.105Z,6.50
2022-12-06T15:32:59.784Z,6.40
2022-12-06T15:37:37.516Z,6.30
2022-12-06T15:41:42.365Z,6.20
2022-12-06T15:45:51.530Z,6.20
2022-12-06T15:50:03.905Z,6.20
2022-12-06T15:54:18.409Z,6.20
2022-12-06T15:58:27.325Z,6.10
2022-12-06T16:02:36.374Z,5.90
2022-12-06T16:06:47.724Z,5.90
2022-12-06T16:11:11.823Z,5.80
2022-12-06T16:15:21.685Z,5.70
2022-12-06T16:19:50.963Z,5.60
2022-12-06T16:24:12.916Z,5.50
2022-12-06T16:28:22.368Z,5.40
2022-12-06T16:32:31.484Z,5.40
2022-12-06T16:36:56.806Z,5.40
2022-12-06T16:41:11.349Z,5.10
2022-12-06T16:45:20.585Z,4.90
2022-12-06T16:49:48.872Z,4.80
2022-12-06T16:53:58.503Z,4.80
2022-12-06T16:58:09.126Z,4.80
2022-12-06T17:02:26.687Z,4.80
2022-12-06T17:06:36.427Z,4.70
2022-12-06T17:10:45.523Z,4.50
2022-12-06T17:14:56.087Z,4.40
2022-12-06T17:19:06.525Z,4.30
2022-12-06T17:23:17.004Z,4.30
2022-12-06T17:27:26.063Z,4.20
2022-12-06T17:31:37.751Z,4.10
2022-12-06T17:35:47.109Z,4.00
2022-12-06T17:39:56.423Z,4.10
2022-12-06T17:44:06.463Z,4.10
2022-12-06T17:48:17.063Z,4.00
2022-12-06T17:52:26.253Z,3.80
2022-12-06T17:56:37.184Z,3.90
2022-12-06T18:00:46.373Z,4.00
2022-12-06T18:04:58.062Z,4.10
2022-12-06T18:09:08.364Z,4.00
2022-12-06T18:13:17.505Z,3.90
2022-12-06T18:17:26.605Z,3.90
2022-12-06T18:21:37.365Z,3.90
2022-12-06T18:25:46.545Z,3.70
2022-12-06T18:29:57.062Z,3.60
2022-12-06T18:34:06.465Z,3.50
2022-12-06T18:38:17.125Z,3.60
2022-12-06T18:42:26.204Z,3.60
2022-12-06T18:46:35.224Z,3.60
2022-12-06T18:50:44.163Z,3.50
2022-12-06T18:54:54.584Z,3.40
2022-12-06T18:59:06.784Z,3.30
2022-12-06T19:03:16.544Z,3.20
2022-12-06T19:07:25.685Z,3.30
2022-12-06T19:11:38.304Z,3.20
2022-12-06T19:15:47.405Z,3.10
2022-12-06T19:19:56.424Z,3.10
2022-12-06T19:24:05.845Z,3.00
2022-12-06T19:28:16.345Z,3.00
2022-12-06T19:32:25.588Z,2.90
2022-12-06T19:36:34.703Z,2.90
2022-12-06T19:40:43.784Z,2.90
2022-12-06T19:44:54.324Z,2.90
2022-12-06T19:49:06.604Z,2.90
2022-12-06T19:53:15.607Z,2.80
2022-12-06T19:57:24.605Z,2.70
2022-12-06T20:01:35.361Z,2.70
2022-12-06T20:05:44.285Z,2.70
2022-12-06T20:09:53.400Z,2.60
2022-12-06T20:14:03.044Z,2.60
2022-12-06T20:18:13.624Z,2.60
2022-12-06T20:22:23.183Z,2.70
2022-12-06T20:26:34.627Z,2.80
2022-12-06T20:30:43.818Z,2.80
2022-12-06T20:34:54.344Z,2.80
2022-12-06T20:39:03.507Z,2.80
2022-12-06T20:43:12.864Z,2.70
2022-12-06T20:47:22.244Z,2.70
2022-12-06T20:51:33.939Z,2.60
2022-12-06T20:55:42.964Z,2.60
2022-12-06T20:59:52.165Z,2.60
2022-12-06T21:04:01.544Z,2.60
2022-12-06T21:08:12.148Z,2.60
2022-12-06T21:12:22.685Z,2.40
2022-12-06T21:16:33.163Z,2.30
2022-12-06T21:20:42.366Z,2.30
2022-12-06T21:24:56.811Z,2.40
2022-12-06T21:29:06.343Z,2.40
2022-12-06T21:33:15.608Z,2.50
2022-12-06T21:37:24.739Z,2.50
2022-12-06T21:41:35.609Z,2.40
2022-12-06T21:45:44.745Z,2.40
2022-12-06T21:49:54.064Z,2.40
2022-12-06T21:54:03.125Z,2.40
2022-12-06T21:58:13.707Z,2.30
2022-12-06T22:02:22.896Z,2.20
2022-12-06T22:06:33.809Z,2.30
2022-12-06T22:10:44.069Z,2.40
2022-12-06T22:14:54.786Z,2.40
2022-12-06T22:19:04.028Z,2.00
2022-12-06T22:23:13.086Z,2.00
2022-12-06T22:27:22.250Z,2.00
2022-12-06T22:31:34.625Z,2.10
2022-12-06T22:35:44.261Z,2.10
2022-12-06T22:39:53.386Z,2.10
2022-12-06T22:44:05.297Z,2.20
2022-12-06T22:48:16.069Z,2.10
2022-12-06T22:52:25.147Z,2.10
2022-12-06T22:56:35.226Z,2.10
2022-12-06T23:00:44.426Z,2.10
2022-12-06T23:04:55.026Z,2.20
2022-12-06T23:09:05.113Z,2.20
2022-12-06T23:13:14.207Z,2.20
2022-12-06T23:17:23.365Z,1.90
2022-12-06T23:21:35.428Z,1.90
2022-12-06T23:25:44.508Z,2.00
2022-12-06T23:29:53.646Z,2.10
2022-12-06T23:34:05.968Z,2.10
2022-12-06T23:38:16.688Z,2.00
2022-12-06T23:42:25.825Z,1.90
2022-12-06T23:46:36.797Z,1.90
2022-12-06T23:50:46.008Z,2.00
2022-12-06T23:54:56.795Z,1.90
2022-12-06T23:59:07.289Z,1.60
